createdAt,value
2022-09-15T00:01:09.703Z,15.10
2022-09-15T00:03:37.404Z,15.11
2022-09-15T00:06:04.450Z,15.12
2022-09-15T00:08:31.496Z,15.16
2022-09-15T00:11:07.874Z,15.19
2022-09-15T00:13:36.308Z,15.23
2022-09-15T00:16:04.234Z,15.25
2022-09-15T00:18:31.488Z,15.25
2022-09-15T00:20:58.202Z,15.26
2022-09-15T00:23:33.138Z,15.27
2022-09-15T00:25:59.836Z,15.30
2022-09-15T00:28:26.443Z,15.32
2022-09-15T00:30:54.991Z,15.35
2022-09-15T00:33:22.923Z,15.37
2022-09-15T00:35:52.614Z,15.40
2022-09-15T00:38:19.903Z,15.39
2022-09-15T00:40:51.987Z,15.33
2022-09-15T00:43:23.396Z,15.33
2022-09-15T00:45:50.762Z,15.31
2022-09-15T00:48:21.533Z,15.33
2022-09-15T00:50:54.213Z,15.34
2022-09-15T00:53:23.678Z,15.36
2022-09-15T00:55:51.324Z,15.39
2022-09-15T00:58:28.759Z,15.39
2022-09-15T01:01:00.654Z,15.35
2022-09-15T01:03:30.515Z,15.30
2022-09-15T01:06:01.022Z,15.24
2022-09-15T01:08:49.233Z,15.21
2022-09-15T01:11:17.178Z,15.20
2022-09-15T01:13:44.692Z,15.23
2022-09-15T01:16:32.722Z,15.27
2022-09-15T01:19:12.848Z,15.30
2022-09-15T01:21:50.439Z,15.30
2022-09-15T01:24:41.726Z,15.24
2022-09-15T01:27:40.549Z,15.23
2022-09-15T01:30:06.607Z,15.22
2022-09-15T01:33:06.707Z,15.21
2022-09-15T01:35:42.309Z,15.20
2022-09-15T01:38:23.921Z,15.17
2022-09-15T01:40:59.036Z,15.18
2022-09-15T01:43:29.867Z,15.19
2022-09-15T01:45:59.875Z,15.22
2022-09-15T01:48:28.318Z,15.24
2022-09-15T01:50:58.787Z,15.25
2022-09-15T01:53:28.815Z,15.26
2022-09-15T01:56:06.713Z,15.27
2022-09-15T01:58:34.777Z,15.23
2022-09-15T02:01:20.298Z,15.17
2022-09-15T02:04:01.236Z,15.09
2022-09-15T02:06:37.425Z,15.02
2022-09-15T02:09:18.145Z,14.99
2022-09-15T02:11:58.250Z,14.99
2022-09-15T02:15:05.535Z,14.99
2022-09-15T02:17:35.514Z,15.02
2022-09-15T02:20:17.844Z,15.04
2022-09-15T02:22:54.007Z,15.01
2022-09-15T02:25:28.771Z,15.01
2022-09-15T02:28:00.442Z,14.98
2022-09-15T02:30:29.269Z,14.96
2022-09-15T02:32:59.529Z,14.94
2022-09-15T02:35:29.767Z,14.97
2022-09-15T02:37:56.931Z,14.99
2022-09-15T02:40:24.313Z,14.98
2022-09-15T02:42:56.443Z,14.96
2022-09-15T02:45:24.992Z,14.99
2022-09-15T02:47:51.778Z,15.01
2022-09-15T02:50:19.355Z,15.03
2022-09-15T02:52:46.295Z,15.07
2022-09-15T02:55:13.089Z,15.08
2022-09-15T02:57:40.848Z,15.08
2022-09-15T03:00:15.087Z,15.09
2022-09-15T03:02:44.929Z,15.10
2022-09-15T03:05:15.243Z,15.10
2022-09-15T03:07:42.349Z,15.08
2022-09-15T03:10:12.120Z,15.08
2022-09-15T03:12:42.670Z,15.05
2022-09-15T03:15:11.825Z,15.03
2022-09-15T03:17:41.693Z,15.02
2022-09-15T03:20:11.105Z,15.01
2022-09-15T03:22:38.349Z,15.05
2022-09-15T03:25:05.704Z,15.08
2022-09-15T03:27:33.145Z,15.10
2022-09-15T03:30:00.865Z,15.12
2022-09-15T03:32:27.609Z,15.17
2022-09-15T03:34:58.217Z,15.22
2022-09-15T03:37:25.573Z,15.27
2022-09-15T03:39:52.244Z,15.28
2022-09-15T03:42:19.931Z,15.26
2022-09-15T03:44:46.552Z,15.25
2022-09-15T03:47:13.278Z,15.25
2022-09-15T03:49:39.954Z,15.23
2022-09-15T03:52:06.670Z,15.24
2022-09-15T03:54:33.377Z,15.22
2022-09-15T03:57:00.029Z,15.20
2022-09-15T03:59:26.694Z,15.25
2022-09-15T04:01:55.079Z,15.23
2022-09-15T04:04:21.796Z,15.19
2022-09-15T04:06:48.436Z,15.18
2022-09-15T04:09:15.306Z,15.17
2022-09-15T04:11:42.883Z,15.18
2022-09-15T04:14:09.550Z,15.20
2022-09-15T04:16:36.690Z,15.23
2022-09-15T04:19:03.660Z,15.24
2022-09-15T04:21:32.126Z,15.28
2022-09-15T04:23:59.099Z,15.28
2022-09-15T04:26:32.463Z,15.30
2022-09-15T04:29:04.202Z,15.31
2022-09-15T04:31:32.479Z,15.33
2022-09-15T04:33:59.857Z,15.34
2022-09-15T04:36:28.463Z,15.36
2022-09-15T04:38:55.856Z,15.37
2022-09-15T04:41:23.341Z,15.38
2022-09-15T04:43:50.489Z,15.42
2022-09-15T04:46:18.644Z,15.42
2022-09-15T04:48:46.295Z,15.44
2022-09-15T04:51:19.239Z,15.50
2022-09-15T04:53:48.892Z,15.51
2022-09-15T04:56:17.275Z,15.52
2022-09-15T04:58:49.334Z,15.53
2022-09-15T05:01:28.821Z,15.58
2022-09-15T05:03:56.626Z,15.62
2022-09-15T05:06:27.917Z,15.67
2022-09-15T05:08:56.903Z,15.70
2022-09-15T05:11:25.705Z,15.71
2022-09-15T05:13:52.866Z,15.74
2022-09-15T05:16:22.140Z,15.76
2022-09-15T05:18:50.325Z,15.78
2022-09-15T05:21:20.028Z,15.80
2022-09-15T05:23:47.549Z,15.81
2022-09-15T05:26:17.843Z,15.76
2022-09-15T05:28:45.063Z,15.75
2022-09-15T05:31:18.126Z,15.77
2022-09-15T05:33:46.235Z,15.78
2022-09-15T05:36:17.501Z,15.81
2022-09-15T05:38:45.076Z,15.85
2022-09-15T05:41:13.947Z,15.89
2022-09-15T05:43:40.615Z,15.91
2022-09-15T05:46:08.104Z,15.92
2022-09-15T05:48:35.358Z,15.96
2022-09-15T05:51:03.424Z,16.00
2022-09-15T05:53:31.239Z,16.05
2022-09-15T05:55:59.565Z,16.05
2022-09-15T05:58:27.536Z,16.04
2022-09-15T06:00:55.159Z,16.04
2022-09-15T06:03:27.530Z,16.02
2022-09-15T06:06:01.454Z,15.96
2022-09-15T06:08:33.343Z,15.91
2022-09-15T06:11:08.917Z,15.89
2022-09-15T06:13:36.544Z,15.85
2022-09-15T06:16:07.012Z,15.82
2022-09-15T06:18:36.009Z,15.78
2022-09-15T06:21:11.571Z,15.74
2022-09-15T06:23:38.566Z,15.72
2022-09-15T06:26:07.440Z,15.73
2022-09-15T06:28:34.057Z,15.71
2022-09-15T06:31:00.830Z,15.71
2022-09-15T06:33:27.729Z,15.69
2022-09-15T06:35:54.540Z,15.66
2022-09-15T06:38:21.269Z,15.65
2022-09-15T06:40:59.029Z,15.65
2022-09-15T06:43:26.346Z,15.64
2022-09-15T06:45:53.049Z,15.65
2022-09-15T06:48:24.829Z,15.67
2022-09-15T06:50:56.064Z,15.71
2022-09-15T06:53:22.934Z,15.71
2022-09-15T06:55:50.558Z,15.70
2022-09-15T06:58:17.430Z,15.68
2022-09-15T07:00:44.211Z,15.68
2022-09-15T07:03:11.052Z,15.65
2022-09-15T07:05:37.876Z,15.65
2022-09-15T07:08:04.520Z,15.65
2022-09-15T07:10:31.262Z,15.64
2022-09-15T07:12:59.372Z,15.63
2022-09-15T07:15:27.569Z,15.63
2022-09-15T07:17:54.276Z,15.65
2022-09-15T07:20:21.084Z,15.65
2022-09-15T07:22:47.743Z,15.65
2022-09-15T07:25:14.561Z,15.67
2022-09-15T07:27:41.181Z,15.68
2022-09-15T07:30:08.717Z,15.72
2022-09-15T07:32:35.512Z,15.80
2022-09-15T07:35:02.672Z,15.86
2022-09-15T07:37:29.574Z,15.96
2022-09-15T07:39:56.258Z,16.05
2022-09-15T07:42:22.949Z,16.17
2022-09-15T07:44:49.557Z,16.28
2022-09-15T07:47:16.598Z,16.37
2022-09-15T07:49:43.505Z,16.51
2022-09-15T07:52:10.358Z,16.63
2022-09-15T07:54:37.007Z,16.77
2022-09-15T07:57:05.964Z,16.90
2022-09-15T07:59:33.162Z,17.03
2022-09-15T08:01:59.871Z,17.05
2022-09-15T08:04:26.551Z,17.02
2022-09-15T08:06:53.188Z,17.02
2022-09-15T08:09:20.008Z,17.06
2022-09-15T08:11:46.673Z,17.08
2022-09-15T08:14:13.339Z,17.12
2022-09-15T08:16:40.079Z,17.20
2022-09-15T08:19:06.799Z,17.28
2022-09-15T08:21:33.538Z,17.29
2022-09-15T08:24:01.369Z,17.32
2022-09-15T08:26:29.277Z,17.33
2022-09-15T08:28:56.121Z,17.30
2022-09-15T08:31:24.518Z,17.25
2022-09-15T08:33:53.330Z,17.20
2022-09-15T08:36:20.568Z,17.11
2022-09-15T08:38:47.578Z,17.06
2022-09-15T08:41:20.422Z,16.95
2022-09-15T08:44:13.220Z,16.93
2022-09-15T08:46:50.685Z,16.90
2022-09-15T08:49:47.436Z,16.91
2022-09-15T08:52:26.834Z,16.93
2022-09-15T08:54:57.881Z,17.00
2022-09-15T08:57:26.601Z,17.03
2022-09-15T08:59:55.025Z,17.08
2022-09-15T09:02:31.643Z,17.13
2022-09-15T09:05:04.031Z,17.16
2022-09-15T09:07:41.960Z,17.17
2022-09-15T09:10:11.620Z,17.17
2022-09-15T09:13:09.949Z,17.17
2022-09-15T09:15:48.692Z,17.21
2022-09-15T09:18:49.813Z,17.38
2022-09-15T09:21:26.726Z,17.62
2022-09-15T09:23:57.780Z,17.79
2022-09-15T09:26:25.500Z,17.91
2022-09-15T09:29:06.576Z,18.11
2022-09-15T09:31:36.085Z,18.24
2022-09-15T09:34:20.000Z,18.35
2022-09-15T09:36:54.976Z,18.42
2022-09-15T09:39:22.780Z,18.57
2022-09-15T09:41:51.237Z,18.73
2022-09-15T09:44:19.330Z,18.85
2022-09-15T09:46:47.039Z,18.90
2022-09-15T09:49:23.639Z,18.97
2022-09-15T09:51:53.186Z,19.08
2022-09-15T09:54:25.159Z,19.16
2022-09-15T09:56:53.733Z,19.14
2022-09-15T09:59:50.566Z,19.07
2022-09-15T10:02:21.465Z,19.00
2022-09-15T10:04:49.387Z,18.93
2022-09-15T10:07:20.184Z,18.88
2022-09-15T10:09:53.633Z,18.87
2022-09-15T10:12:24.379Z,18.84
2022-09-15T10:14:55.211Z,18.84
2022-09-15T10:17:25.892Z,18.78
2022-09-15T10:19:58.325Z,18.71
2022-09-15T10:22:38.076Z,18.67
2022-09-15T10:25:39.440Z,18.64
2022-09-15T10:28:14.645Z,18.66
2022-09-15T10:31:07.392Z,18.68
2022-09-15T10:33:42.766Z,18.70
2022-09-15T10:36:15.429Z,18.66
2022-09-15T10:39:10.822Z,18.57
2022-09-15T10:42:07.146Z,18.41
2022-09-15T10:45:11.151Z,18.28
2022-09-15T10:48:03.297Z,18.08
2022-09-15T10:50:50.826Z,17.84
2022-09-15T10:53:45.264Z,17.57
2022-09-15T10:56:21.791Z,17.34
2022-09-15T10:58:55.856Z,17.22
2022-09-15T11:01:28.554Z,17.20
2022-09-15T11:04:07.573Z,17.22
2022-09-15T11:07:03.883Z,17.20
2022-09-15T11:09:49.987Z,17.15
2022-09-15T11:12:16.828Z,17.15
2022-09-15T11:15:15.630Z,17.20
2022-09-15T11:18:01.213Z,17.29
2022-09-15T11:20:38.207Z,17.43
2022-09-15T11:23:29.367Z,17.59
2022-09-15T11:26:04.637Z,17.72
2022-09-15T11:28:39.021Z,17.78
2022-09-15T11:31:19.627Z,17.72
2022-09-15T11:34:11.592Z,17.57
2022-09-15T11:36:44.927Z,17.45
2022-09-15T11:39:24.141Z,17.38
2022-09-15T11:41:56.861Z,17.32
2022-09-15T11:44:49.863Z,17.37
2022-09-15T11:47:24.502Z,17.43
2022-09-15T11:50:11.329Z,17.48
2022-09-15T11:52:55.284Z,17.56
2022-09-15T11:55:45.235Z,17.62
2022-09-15T11:58:30.007Z,17.75
2022-09-15T12:01:11.676Z,17.76
2022-09-15T12:03:43.375Z,17.76
2022-09-15T12:06:16.257Z,17.78
2022-09-15T12:09:01.468Z,17.78
2022-09-15T12:13:59.555Z,17.64
2022-09-15T12:16:27.730Z,17.58
2022-09-15T12:19:18.646Z,17.50
2022-09-15T12:21:59.518Z,17.47
2022-09-15T12:24:44.016Z,17.35
2022-09-15T12:27:17.056Z,17.27
2022-09-15T12:29:55.362Z,17.25
2022-09-15T12:32:25.803Z,17.28
2022-09-15T12:35:04.514Z,17.21
2022-09-15T12:37:39.858Z,17.13
2022-09-15T12:40:25.253Z,17.05
2022-09-15T12:42:52.645Z,16.97
2022-09-15T12:45:29.620Z,16.91
2022-09-15T12:48:07.165Z,16.84
2022-09-15T12:50:41.427Z,16.74
2022-09-15T12:53:28.637Z,16.65
2022-09-15T12:56:01.851Z,16.60
2022-09-15T12:58:49.255Z,16.54
2022-09-15T13:01:19.393Z,16.51
2022-09-15T13:03:46.513Z,16.49
2022-09-15T13:07:09.296Z,16.49
2022-09-15T13:09:55.933Z,16.54
2022-09-15T13:12:26.586Z,16.59
2022-09-15T13:14:56.650Z,16.54
2022-09-15T13:17:26.057Z,16.56
2022-09-15T13:20:01.736Z,16.59
2022-09-15T13:22:37.838Z,16.63
2022-09-15T13:25:15.906Z,16.65
2022-09-15T13:27:45.386Z,16.64
2022-09-15T13:30:21.529Z,16.61
2022-09-15T13:40:47.371Z,16.57
2022-09-15T13:43:53.890Z,16.53
2022-09-15T13:46:33.993Z,16.54
2022-09-15T13:49:19.483Z,16.54
2022-09-15T13:51:56.666Z,16.54
2022-09-15T13:54:23.308Z,16.52
2022-09-15T13:56:53.344Z,16.45
2022-09-15T13:59:25.691Z,16.43
2022-09-15T14:01:54.008Z,16.41
2022-09-15T14:04:25.727Z,16.41
2022-09-15T14:06:58.514Z,16.40
2022-09-15T14:09:35.395Z,16.41
2022-09-15T14:12:05.080Z,16.43
2022-09-15T14:14:35.251Z,16.41
2022-09-15T14:17:01.976Z,16.34
2022-09-15T14:19:37.201Z,16.35
2022-09-15T14:22:28.310Z,16.31
2022-09-15T14:24:57.959Z,16.28
2022-09-15T14:27:29.128Z,16.26
2022-09-15T14:30:00.385Z,16.25
2022-09-15T14:32:28.895Z,16.26
2022-09-15T14:35:00.774Z,16.27
2022-09-15T14:37:29.618Z,16.28
2022-09-15T14:40:02.116Z,16.28
2022-09-15T14:42:32.637Z,16.29
2022-09-15T14:48:01.534Z,16.28
2022-09-15T14:50:33.341Z,16.26
2022-09-15T14:53:07.034Z,16.25
2022-09-15T14:55:40.522Z,16.25
2022-09-15T14:58:21.911Z,16.24
2022-09-15T15:00:54.771Z,16.26
2022-09-15T15:03:39.572Z,16.28
2022-09-15T15:06:35.621Z,16.27
2022-09-15T15:09:30.295Z,16.23
2022-09-15T15:12:06.509Z,16.18
2022-09-15T15:14:36.179Z,16.13
2022-09-15T15:17:06.071Z,16.07
2022-09-15T15:19:39.196Z,16.01
2022-09-15T15:22:20.119Z,15.93
2022-09-15T15:24:49.777Z,15.87
2022-09-15T15:27:34.399Z,15.80
2022-09-15T15:30:31.858Z,15.68
2022-09-15T15:33:03.031Z,15.63
2022-09-15T15:35:30.940Z,15.60
2022-09-15T15:38:27.193Z,15.53
2022-09-15T15:41:05.456Z,15.49
2022-09-15T15:43:32.350Z,15.46
2022-09-15T15:46:01.875Z,15.39
2022-09-15T15:48:35.427Z,15.38
2022-09-15T15:51:05.898Z,15.38
2022-09-15T15:53:32.668Z,15.38
2022-09-15T15:56:01.273Z,15.35
2022-09-15T15:58:28.266Z,15.32
2022-09-15T16:00:56.931Z,15.33
2022-09-15T16:03:24.745Z,15.31
2022-09-15T16:05:58.500Z,15.29
2022-09-15T16:08:30.200Z,15.30
2022-09-15T16:10:57.557Z,15.33
2022-09-15T16:13:26.012Z,15.33
2022-09-15T16:15:54.151Z,15.33
2022-09-15T16:18:21.947Z,15.33
2022-09-15T16:20:48.836Z,15.33
2022-09-15T16:23:18.834Z,15.33
2022-09-15T16:25:48.372Z,15.32
2022-09-15T16:28:15.496Z,15.29
2022-09-15T16:30:42.996Z,15.27
2022-09-15T16:33:21.464Z,15.19
2022-09-15T16:35:55.195Z,15.15
2022-09-15T16:38:25.596Z,15.11
2022-09-15T16:40:53.375Z,15.05
2022-09-15T16:43:22.283Z,14.98
2022-09-15T16:45:49.875Z,14.94
2022-09-15T16:48:16.698Z,14.87
2022-09-15T16:51:01.662Z,14.81
2022-09-15T16:53:33.016Z,14.78
2022-09-15T16:56:00.008Z,14.74
2022-09-15T16:58:26.773Z,14.68
2022-09-15T17:00:53.810Z,14.63
2022-09-15T17:03:24.079Z,14.60
2022-09-15T17:05:53.299Z,14.60
2022-09-15T17:08:23.586Z,14.56
2022-09-15T17:10:50.818Z,14.50
2022-09-15T17:13:20.443Z,14.50
2022-09-15T17:15:48.832Z,14.49
2022-09-15T17:18:16.686Z,14.41
2022-09-15T17:20:46.218Z,14.36
2022-09-15T17:23:20.761Z,14.36
2022-09-15T17:25:53.574Z,14.36
2022-09-15T17:28:22.895Z,14.33
2022-09-15T17:30:57.451Z,14.34
2022-09-15T17:33:26.750Z,14.35
2022-09-15T17:35:54.557Z,14.34
2022-09-15T17:38:22.653Z,14.34
2022-09-15T17:40:50.584Z,14.35
2022-09-15T17:43:19.779Z,14.33
2022-09-15T17:45:47.325Z,14.29
2022-09-15T17:48:14.043Z,14.26
2022-09-15T17:50:42.096Z,14.25
2022-09-15T17:53:15.562Z,14.26
2022-09-15T17:55:43.967Z,14.23
2022-09-15T17:58:10.879Z,14.22
2022-09-15T18:00:40.217Z,14.22
2022-09-15T18:03:19.899Z,14.23
2022-09-15T18:05:46.797Z,14.25
2022-09-15T18:08:16.825Z,14.26
2022-09-15T18:10:44.025Z,14.25
2022-09-15T18:13:17.518Z,14.22
2022-09-15T18:15:44.663Z,14.17
2022-09-15T18:18:20.668Z,14.12
2022-09-15T18:20:48.476Z,14.11
2022-09-15T18:23:19.794Z,14.05
2022-09-15T18:25:47.382Z,14.00
2022-09-15T18:28:17.716Z,13.97
2022-09-15T18:30:47.142Z,13.93
2022-09-15T18:33:22.576Z,13.90
2022-09-15T18:35:51.758Z,13.83
2022-09-15T18:38:20.336Z,13.79
2022-09-15T18:40:53.723Z,13.77
2022-09-15T18:43:22.930Z,13.71
2022-09-15T18:45:50.523Z,13.69
2022-09-15T18:48:17.937Z,13.71
2022-09-15T18:50:45.742Z,13.73
2022-09-15T18:53:12.975Z,13.74
2022-09-15T18:55:42.360Z,13.75
2022-09-15T18:58:10.276Z,13.77
2022-09-15T19:00:37.627Z,13.77
2022-09-15T19:03:07.034Z,13.75
2022-09-15T19:05:34.293Z,13.72
2022-09-15T19:08:02.067Z,13.70
2022-09-15T19:10:29.446Z,13.66
2022-09-15T19:12:56.260Z,13.63
2022-09-15T19:15:24.169Z,13.63
2022-09-15T19:17:51.004Z,13.62
2022-09-15T19:20:18.119Z,13.61
2022-09-15T19:22:44.916Z,13.56
2022-09-15T19:25:12.299Z,13.56
2022-09-15T19:27:39.953Z,13.55
2022-09-15T19:30:10.250Z,13.55
2022-09-15T19:32:38.469Z,13.50
2022-09-15T19:35:05.909Z,13.50
2022-09-15T19:37:37.445Z,13.50
2022-09-15T19:40:08.430Z,13.48
2022-09-15T19:42:35.865Z,13.49
2022-09-15T19:45:02.793Z,13.47
2022-09-15T19:47:29.788Z,13.47
2022-09-15T19:49:56.474Z,13.49
2022-09-15T19:52:23.111Z,13.50
2022-09-15T19:54:49.877Z,13.47
2022-09-15T19:57:16.636Z,13.42
2022-09-15T19:59:44.852Z,13.39
2022-09-15T20:02:12.631Z,13.35
2022-09-15T20:07:24.914Z,13.22
2022-09-15T20:09:53.448Z,13.17
2022-09-15T20:14:48.116Z,13.12
2022-09-15T20:17:15.696Z,13.12
2022-09-15T20:19:43.236Z,13.08
2022-09-15T20:22:10.180Z,13.02
2022-09-15T20:24:38.233Z,12.97
2022-09-15T20:27:05.793Z,12.94
2022-09-15T20:29:33.775Z,12.91
2022-09-15T20:32:00.618Z,12.90
2022-09-15T20:34:27.672Z,12.87
2022-09-15T20:36:55.015Z,12.85
2022-09-15T20:39:22.932Z,12.80
2022-09-15T20:41:50.333Z,12.80
2022-09-15T20:44:17.258Z,12.76
2022-09-15T20:46:44.286Z,12.75
2022-09-15T20:49:12.127Z,12.72
2022-09-15T20:51:40.207Z,12.67
2022-09-15T20:54:08.589Z,12.64
2022-09-15T20:56:36.258Z,12.61
2022-09-15T20:59:04.690Z,12.55
2022-09-15T21:01:37.605Z,12.51
2022-09-15T21:04:05.983Z,12.48
2022-09-15T21:06:33.022Z,12.45
2022-09-15T21:09:00.498Z,12.43
2022-09-15T21:11:29.203Z,12.42
2022-09-15T21:13:56.985Z,12.42
2022-09-15T21:16:26.654Z,12.39
2022-09-15T21:18:54.219Z,12.34
2022-09-15T21:21:25.297Z,12.28
2022-09-15T21:23:54.900Z,12.22
2022-09-15T21:26:24.547Z,12.18
2022-09-15T21:28:52.006Z,12.11
2022-09-15T21:31:26.259Z,12.09
2022-09-15T21:33:54.416Z,12.05
2022-09-15T21:36:24.000Z,11.99
2022-09-15T21:38:53.162Z,11.93
2022-09-15T21:41:22.402Z,11.85
2022-09-15T21:43:54.852Z,11.79
2022-09-15T21:46:25.374Z,11.73
2022-09-15T21:48:52.587Z,11.69
2022-09-15T21:51:24.758Z,11.67
2022-09-15T21:53:54.833Z,11.66
2022-09-15T21:56:22.179Z,11.67
2022-09-15T21:58:49.193Z,11.66
2022-09-15T22:01:25.877Z,11.67
2022-09-15T22:03:58.575Z,11.68
2022-09-15T22:06:31.794Z,11.70
2022-09-15T22:09:00.328Z,11.73
2022-09-15T22:11:27.475Z,11.77
2022-09-15T22:13:54.388Z,11.81
2022-09-15T22:16:24.444Z,11.85
2022-09-15T22:18:52.116Z,11.90
2022-09-15T22:21:22.964Z,11.91
2022-09-15T22:23:51.315Z,11.92
2022-09-15T22:26:21.500Z,11.93
2022-09-15T22:28:48.993Z,11.92
2022-09-15T22:31:18.554Z,11.89
2022-09-15T22:33:46.130Z,11.85
2022-09-15T22:36:18.480Z,11.83
2022-09-15T22:38:46.283Z,11.80
2022-09-15T22:41:16.250Z,11.80
2022-09-15T22:43:49.151Z,11.81
2022-09-15T22:46:18.032Z,11.81
2022-09-15T22:48:44.858Z,11.80
2022-09-15T22:51:13.024Z,11.77
2022-09-15T22:53:39.858Z,11.75
2022-09-15T22:56:17.255Z,11.73
2022-09-15T22:58:44.467Z,11.76
2022-09-15T23:01:16.965Z,11.83
2022-09-15T23:03:48.136Z,11.85
2022-09-15T23:06:14.902Z,11.88
2022-09-15T23:08:42.616Z,11.90
2022-09-15T23:11:12.072Z,11.91
2022-09-15T23:13:40.039Z,11.93
2022-09-15T23:16:08.036Z,11.93
2022-09-15T23:18:35.416Z,11.91
2022-09-15T23:21:05.327Z,11.87
2022-09-15T23:23:31.808Z,11.85
2022-09-15T23:25:58.438Z,11.80
2022-09-15T23:28:27.007Z,11.78
2022-09-15T23:30:55.313Z,11.78
2022-09-15T23:33:23.384Z,11.79
2022-09-15T23:35:50.407Z,11.78
2022-09-15T23:38:19.019Z,11.76
2022-09-15T23:40:47.314Z,11.73
2022-09-15T23:43:15.197Z,11.69
2022-09-15T23:45:43.075Z,11.66
2022-09-15T23:48:10.006Z,11.66
2022-09-15T23:50:38.215Z,11.62
2022-09-15T23:53:05.478Z,11.60
2022-09-15T23:55:32.547Z,11.60
2022-09-15T23:57:59.260Z,11.61
